Detall de PIREP

Printer-friendly versionPDF version

[2012/05/11 17:04:00]
Flight IATA:CT3404
Pilot Number:042
Company ICAO:CAT
Aircraft Type:B738/F
PAX:150
Departing Airport: LEBL
Destination Airport: GCLP
Alternate Airport:GCXO
Online: VATSIM
Route:LOTOS UM985 YES UM985 MGA UN869 RUSIK
Flight Level:F350
No Slew and time accel
No pause
Crash detect
Detect pilot in Cockpit between each 30 and 45 minutes
17:04 Zero fuel Weight: 118702 Lbs, Fuel Weight: 46058 Lbs
17:04 VATSIM:LEBL 111630Z 22015KT CAVOK 24/07 Q1024 NOSIG
17:04 VATSIM:GCLP 111630Z 01026KT CAVOK 27/13 Q1017 NOSIG
17:05 VOICE CATALONIAN
17:18 Parking Brakes off
17:31 Take-off
17:31 Take off Weight: 163517 Lbs
17:31 Wind: 223º @ 015 Knots Heading: 244º
17:31 POS N41º 16´ 59´´ E002º 04´ 39´´
17:32 Gear Up: 169 Knots
17:32 Flaps:5 at 169 Knots
17:32 Flaps:4 at 156 Knots
17:32 Flaps:3 at 174 Knots
17:33 Flaps:2 at 210 Knots
17:33 Flaps:1 at 225 Knots
17:34 Flaps:0 at 238 Knots
17:47 Wind:196º@016 Knots Heading: 225º Ground Speed: 443 Knots Altitude 26932 ft
17:56 TOC
17:56 Fuel Weight: 39981 Lb
18:02 Wind:130º@019 Knots Heading: 230º Ground Speed: 467 Knots Altitude 35324 ft
18:17 Wind:163º@019 Knots Heading: 224º Ground Speed: 456 Knots Altitude 35282 ft
18:32 Wind:139º@035 Knots Heading: 208º Ground Speed: 446 Knots Altitude 35288 ft
18:47 Wind:089º@031 Knots Heading: 213º Ground Speed: 481 Knots Altitude 35193 ft
19:02 Wind:338º@034 Knots Heading: 217º Ground Speed: 483 Knots Altitude 35121 ft
19:17 Wind:328º@032 Knots Heading: 212º Ground Speed: 487 Knots Altitude 35141 ft
19:32 Wind:230º@028 Knots Heading: 243º Ground Speed: 409 Knots Altitude 35052 ft
19:47 Wind:339º@038 Knots Heading: 248º Ground Speed: 458 Knots Altitude 35082 ft
20:02 Wind:337º@070 Knots Heading: 251º Ground Speed: 463 Knots Altitude 35075 ft
20:03 TOD
20:03 Fuel Weight: 28023 Lb
20:17 Wind:359º@054 Knots Heading: 227º Ground Speed: 395 Knots Altitude 8126 ft
20:20 Flaps:1 at 223 Knots
20:21 Flaps:2 at 195 Knots
20:22 Flaps:3 at 182 Knots
20:24 Flaps:4 at 181 Knots
20:25 Flaps:5 at 183 Knots
20:27 Gear Down: 161 Knots
20:27 Flaps:8 at 161 Knots
20:31 TouchDown:Rate -481 ft/min Speed: 130 Knots
20:31 VATSIM:GCLP 112000Z 36024KT CAVOK 25/12 Q1018 NOSIG
20:32 Land
20:32 Wind:008º@024 Knots
20:32 Heading: 023º
20:32 Flight Duration: 03:01
20:32 Landing Weight: 144808 Lbs
20:32 POS N27º 55´ 55´´ W015º 23´ 11´´
20:32 Parking brakes on
20:32 Block to Block Duration: 03:14
20:32 Final Fuel: 26047 Lbls
20:32 Spent Fuel: 20011 Lbls
20:32 Flight Length: 1159 NM
20:32 TOD Land Length: 136 NM

Exportar CSV

Powered by Drupal - Modified by Danger4k